sensor_id;sensor_type;location;lat;lon;timestamp;P1;durP1;ratioP1;P2;durP2;ratioP2
22955;SDS011;40888;48.148;11.526;2022-12-18T00:01:37;41.77;;;32.03;;
22955;SDS011;40888;48.148;11.526;2022-12-18T00:04:05;43.93;;;32.27;;
22955;SDS011;40888;48.148;11.526;2022-12-18T00:06:33;45.97;;;33.10;;
22955;SDS011;40888;48.148;11.526;2022-12-18T00:08:59;47.70;;;31.93;;
22955;SDS011;40888;48.148;11.526;2022-12-18T00:11:27;45.27;;;32.43;;
22955;SDS011;40888;48.148;11.526;2022-12-18T00:13:54;42.87;;;31.07;;
22955;SDS011;40888;48.148;11.526;2022-12-18T00:16:21;41.43;;;31.10;;
22955;SDS011;40888;48.148;11.526;2022-12-18T00:18:48;41.67;;;30.27;;
22955;SDS011;40888;48.148;11.526;2022-12-18T00:21:15;41.20;;;29.23;;
22955;SDS011;40888;48.148;11.526;2022-12-18T00:23:42;39.97;;;28.43;;
22955;SDS011;40888;48.148;11.526;2022-12-18T00:26:15;43.90;;;30.20;;
22955;SDS011;40888;48.148;11.526;2022-12-18T00:28:42;45.53;;;29.83;;
22955;SDS011;40888;48.148;11.526;2022-12-18T00:31:10;47.20;;;32.00;;
22955;SDS011;40888;48.148;11.526;2022-12-18T00:33:36;52.67;;;35.53;;
22955;SDS011;40888;48.148;11.526;2022-12-18T00:36:06;50.47;;;34.53;;
22955;SDS011;40888;48.148;11.526;2022-12-18T00:38:33;57.20;;;36.30;;
22955;SDS011;40888;48.148;11.526;2022-12-18T00:41:00;51.50;;;34.57;;
22955;SDS011;40888;48.148;11.526;2022-12-18T00:43:26;53.80;;;34.73;;
22955;SDS011;40888;48.148;11.526;2022-12-18T00:45:52;55.23;;;37.23;;
22955;SDS011;40888;48.148;11.526;2022-12-18T00:48:18;53.37;;;35.47;;
22955;SDS011;40888;48.148;11.526;2022-12-18T00:50:45;54.23;;;35.53;;
22955;SDS011;40888;48.148;11.526;2022-12-18T00:53:11;50.60;;;33.30;;
22955;SDS011;40888;48.148;11.526;2022-12-18T00:55:38;49.40;;;34.17;;
22955;SDS011;40888;48.148;11.526;2022-12-18T00:58:05;46.70;;;32.97;;
22955;SDS011;40888;48.148;11.526;2022-12-18T01:00:31;51.23;;;33.30;;
22955;SDS011;40888;48.148;11.526;2022-12-18T01:02:57;49.20;;;32.00;;
22955;SDS011;40888;48.148;11.526;2022-12-18T01:05:23;52.10;;;33.67;;
22955;SDS011;40888;48.148;11.526;2022-12-18T01:07:49;51.07;;;33.57;;
22955;SDS011;40888;48.148;11.526;2022-12-18T01:10:15;52.67;;;34.10;;
22955;SDS011;40888;48.148;11.526;2022-12-18T01:12:41;52.30;;;33.50;;
22955;SDS011;40888;48.148;11.526;2022-12-18T01:15:08;48.80;;;33.13;;
22955;SDS011;40888;48.148;11.526;2022-12-18T01:17:35;52.17;;;33.40;;
22955;SDS011;40888;48.148;11.526;2022-12-18T01:20:01;52.93;;;33.40;;
22955;SDS011;40888;48.148;11.526;2022-12-18T01:22:27;48.13;;;31.80;;
22955;SDS011;40888;48.148;11.526;2022-12-18T01:24:53;48.27;;;32.37;;
22955;SDS011;40888;48.148;11.526;2022-12-18T01:27:20;52.93;;;32.70;;
22955;SDS011;40888;48.148;11.526;2022-12-18T01:29:46;50.17;;;33.03;;
22955;SDS011;40888;48.148;11.526;2022-12-18T01:32:12;48.33;;;32.07;;
22955;SDS011;40888;48.148;11.526;2022-12-18T01:34:38;45.53;;;31.53;;
22955;SDS011;40888;48.148;11.526;2022-12-18T01:37:04;52.23;;;33.07;;
22955;SDS011;40888;48.148;11.526;2022-12-18T01:39:31;48.63;;;31.07;;
22955;SDS011;40888;48.148;11.526;2022-12-18T01:41:58;47.00;;;31.93;;
22955;SDS011;40888;48.148;11.526;2022-12-18T01:47:20;42.90;;;30.93;;
22955;SDS011;40888;48.148;11.526;2022-12-18T01:49:49;47.97;;;31.17;;
22955;SDS011;40888;48.148;11.526;2022-12-18T01:52:16;44.23;;;28.47;;
22955;SDS011;40888;48.148;11.526;2022-12-18T01:54:42;43.33;;;29.67;;
22955;SDS011;40888;48.148;11.526;2022-12-18T01:57:09;41.87;;;28.47;;
22955;SDS011;40888;48.148;11.526;2022-12-18T01:59:35;43.73;;;30.17;;
22955;SDS011;40888;48.148;11.526;2022-12-18T02:02:02;43.33;;;30.00;;
22955;SDS011;40888;48.148;11.526;2022-12-18T02:04:29;52.50;;;31.60;;
22955;SDS011;40888;48.148;11.526;2022-12-18T02:09:26;47.57;;;30.63;;
22955;SDS011;40888;48.148;11.526;2022-12-18T02:14:41;42.60;;;29.70;;
22955;SDS011;40888;48.148;11.526;2022-12-18T02:17:17;45.30;;;30.53;;
22955;SDS011;40888;48.148;11.526;2022-12-18T02:19:57;50.50;;;32.77;;
22955;SDS011;40888;48.148;11.526;2022-12-18T02:25:19;52.37;;;33.77;;
22955;SDS011;40888;48.148;11.526;2022-12-18T02:27:47;46.90;;;30.60;;
22955;SDS011;40888;48.148;11.526;2022-12-18T02:30:15;49.77;;;32.50;;
22955;SDS011;40888;48.148;11.526;2022-12-18T02:32:43;50.77;;;31.70;;
22955;SDS011;40888;48.148;11.526;2022-12-18T02:35:22;53.47;;;33.97;;
22955;SDS011;40888;48.148;11.526;2022-12-18T02:37:49;50.97;;;33.33;;
22955;SDS011;40888;48.148;11.526;2022-12-18T02:40:15;45.43;;;31.63;;
22955;SDS011;40888;48.148;11.526;2022-12-18T02:42:43;54.37;;;34.30;;
22955;SDS011;40888;48.148;11.526;2022-12-18T02:45:09;53.77;;;33.43;;
22955;SDS011;40888;48.148;11.526;2022-12-18T02:47:39;55.23;;;35.97;;
22955;SDS011;40888;48.148;11.526;2022-12-18T02:50:15;53.70;;;35.63;;
22955;SDS011;40888;48.148;11.526;2022-12-18T02:55:34;55.37;;;35.50;;
22955;SDS011;40888;48.148;11.526;2022-12-18T02:58:09;56.47;;;37.57;;
22955;SDS011;40888;48.148;11.526;2022-12-18T03:03:05;59.57;;;38.20;;
22955;SDS011;40888;48.148;11.526;2022-12-18T03:05:50;56.80;;;35.90;;
22955;SDS011;40888;48.148;11.526;2022-12-18T03:08:24;56.53;;;34.87;;
22955;SDS011;40888;48.148;11.526;2022-12-18T03:10:55;54.90;;;35.67;;
22955;SDS011;40888;48.148;11.526;2022-12-18T03:13:25;57.97;;;35.13;;
22955;SDS011;40888;48.148;11.526;2022-12-18T03:15:53;54.80;;;36.60;;
22955;SDS011;40888;48.148;11.526;2022-12-18T03:18:21;57.87;;;36.67;;
22955;SDS011;40888;48.148;11.526;2022-12-18T03:20:49;56.07;;;34.80;;
22955;SDS011;40888;48.148;11.526;2022-12-18T03:23:17;53.10;;;34.87;;
22955;SDS011;40888;48.148;11.526;2022-12-18T03:25:44;52.20;;;34.67;;
22955;SDS011;40888;48.148;11.526;2022-12-18T03:28:13;51.60;;;33.10;;
22955;SDS011;40888;48.148;11.526;2022-12-18T03:30:41;54.60;;;34.67;;
22955;SDS011;40888;48.148;11.526;2022-12-18T03:33:09;52.27;;;35.00;;
22955;SDS011;40888;48.148;11.526;2022-12-18T03:35:37;54.70;;;35.70;;
22955;SDS011;40888;48.148;11.526;2022-12-18T03:38:04;53.27;;;34.80;;
22955;SDS011;40888;48.148;11.526;2022-12-18T03:40:43;52.37;;;35.50;;
22955;SDS011;40888;48.148;11.526;2022-12-18T03:43:33;52.40;;;35.23;;
22955;SDS011;40888;48.148;11.526;2022-12-18T03:46:02;50.37;;;33.60;;
22955;SDS011;40888;48.148;11.526;2022-12-18T03:48:33;51.43;;;33.93;;
22955;SDS011;40888;48.148;11.526;2022-12-18T03:53:55;52.50;;;35.07;;
22955;SDS011;40888;48.148;11.526;2022-12-18T03:56:24;51.43;;;35.63;;
22955;SDS011;40888;48.148;11.526;2022-12-18T03:58:51;51.90;;;35.77;;
22955;SDS011;40888;48.148;11.526;2022-12-18T04:01:18;56.03;;;36.43;;
22955;SDS011;40888;48.148;11.526;2022-12-18T04:03:46;52.37;;;34.50;;
22955;SDS011;40888;48.148;11.526;2022-12-18T04:06:14;51.03;;;33.30;;
22955;SDS011;40888;48.148;11.526;2022-12-18T04:08:40;55.87;;;37.00;;
22955;SDS011;40888;48.148;11.526;2022-12-18T04:11:07;51.93;;;33.73;;
22955;SDS011;40888;48.148;11.526;2022-12-18T04:13:36;53.90;;;35.60;;
22955;SDS011;40888;48.148;11.526;2022-12-18T04:16:03;52.20;;;35.10;;
22955;SDS011;40888;48.148;11.526;2022-12-18T04:18:29;54.87;;;35.40;;
22955;SDS011;40888;48.148;11.526;2022-12-18T04:20:55;50.50;;;34.90;;
22955;SDS011;40888;48.148;11.526;2022-12-18T04:23:21;51.67;;;35.90;;
22955;SDS011;40888;48.148;11.526;2022-12-18T04:25:48;51.97;;;36.70;;
22955;SDS011;40888;48.148;11.526;2022-12-18T04:28:14;52.70;;;35.40;;
22955;SDS011;40888;48.148;11.526;2022-12-18T04:30:40;50.13;;;33.73;;
22955;SDS011;40888;48.148;11.526;2022-12-18T04:33:13;53.87;;;36.83;;
22955;SDS011;40888;48.148;11.526;2022-12-18T04:35:39;50.90;;;33.63;;
22955;SDS011;40888;48.148;11.526;2022-12-18T04:38:06;49.73;;;33.27;;
22955;SDS011;40888;48.148;11.526;2022-12-18T04:40:33;43.97;;;31.67;;
22955;SDS011;40888;48.148;11.526;2022-12-18T04:42:59;49.70;;;33.47;;
22955;SDS011;40888;48.148;11.526;2022-12-18T04:45:26;49.23;;;33.77;;
22955;SDS011;40888;48.148;11.526;2022-12-18T04:47:52;50.50;;;34.03;;
22955;SDS011;40888;48.148;11.526;2022-12-18T04:50:18;47.43;;;31.57;;
22955;SDS011;40888;48.148;11.526;2022-12-18T04:52:44;47.33;;;32.03;;
22955;SDS011;40888;48.148;11.526;2022-12-18T04:55:10;46.63;;;31.80;;
22955;SDS011;40888;48.148;11.526;2022-12-18T04:57:36;46.17;;;32.13;;
22955;SDS011;40888;48.148;11.526;2022-12-18T05:00:02;49.83;;;33.00;;
22955;SDS011;40888;48.148;11.526;2022-12-18T05:02:29;42.77;;;30.97;;
22955;SDS011;40888;48.148;11.526;2022-12-18T05:04:55;46.70;;;30.93;;
22955;SDS011;40888;48.148;11.526;2022-12-18T05:07:21;46.90;;;31.47;;
22955;SDS011;40888;48.148;11.526;2022-12-18T05:09:47;44.53;;;31.40;;
22955;SDS011;40888;48.148;11.526;2022-12-18T05:12:13;46.53;;;31.53;;
22955;SDS011;40888;48.148;11.526;2022-12-18T05:14:39;45.00;;;30.57;;
22955;SDS011;40888;48.148;11.526;2022-12-18T05:17:05;43.70;;;30.83;;
22955;SDS011;40888;48.148;11.526;2022-12-18T05:19:32;46.87;;;31.20;;
22955;SDS011;40888;48.148;11.526;2022-12-18T05:21:58;40.50;;;28.97;;
22955;SDS011;40888;48.148;11.526;2022-12-18T05:24:24;44.47;;;30.67;;
22955;SDS011;40888;48.148;11.526;2022-12-18T05:26:50;47.20;;;31.73;;
22955;SDS011;40888;48.148;11.526;2022-12-18T05:29:16;45.07;;;30.83;;
22955;SDS011;40888;48.148;11.526;2022-12-18T05:31:42;45.73;;;32.50;;
22955;SDS011;40888;48.148;11.526;2022-12-18T05:34:08;42.17;;;29.80;;
22955;SDS011;40888;48.148;11.526;2022-12-18T05:36:34;43.77;;;30.30;;
22955;SDS011;40888;48.148;11.526;2022-12-18T05:39:01;42.87;;;30.63;;
22955;SDS011;40888;48.148;11.526;2022-12-18T05:41:27;45.80;;;30.03;;
22955;SDS011;40888;48.148;11.526;2022-12-18T05:43:53;42.47;;;29.40;;
22955;SDS011;40888;48.148;11.526;2022-12-18T05:46:19;38.83;;;28.10;;
22955;SDS011;40888;48.148;11.526;2022-12-18T05:48:46;35.83;;;25.77;;
22955;SDS011;40888;48.148;11.526;2022-12-18T05:51:14;40.43;;;29.00;;
22955;SDS011;40888;48.148;11.526;2022-12-18T05:53:41;41.07;;;29.57;;
22955;SDS011;40888;48.148;11.526;2022-12-18T05:56:08;39.13;;;28.60;;
22955;SDS011;40888;48.148;11.526;2022-12-18T05:58:35;42.20;;;29.20;;
22955;SDS011;40888;48.148;11.526;2022-12-18T06:01:08;37.50;;;26.77;;
22955;SDS011;40888;48.148;11.526;2022-12-18T06:03:34;37.57;;;26.40;;
22955;SDS011;40888;48.148;11.526;2022-12-18T06:06:01;36.00;;;27.30;;
22955;SDS011;40888;48.148;11.526;2022-12-18T06:08:27;39.63;;;27.53;;
22955;SDS011;40888;48.148;11.526;2022-12-18T06:10:53;38.20;;;27.87;;
22955;SDS011;40888;48.148;11.526;2022-12-18T06:13:20;37.20;;;27.10;;
22955;SDS011;40888;48.148;11.526;2022-12-18T06:15:46;39.90;;;28.57;;
22955;SDS011;40888;48.148;11.526;2022-12-18T06:18:12;38.87;;;26.73;;
22955;SDS011;40888;48.148;11.526;2022-12-18T06:20:38;40.97;;;28.77;;
22955;SDS011;40888;48.148;11.526;2022-12-18T06:23:06;41.73;;;27.87;;
22955;SDS011;40888;48.148;11.526;2022-12-18T06:25:33;40.30;;;27.70;;
22955;SDS011;40888;48.148;11.526;2022-12-18T06:27:59;41.83;;;29.00;;
22955;SDS011;40888;48.148;11.526;2022-12-18T06:30:25;41.30;;;29.30;;
22955;SDS011;40888;48.148;11.526;2022-12-18T06:32:51;40.40;;;28.10;;
22955;SDS011;40888;48.148;11.526;2022-12-18T06:35:17;39.63;;;28.23;;
22955;SDS011;40888;48.148;11.526;2022-12-18T06:37:43;41.80;;;28.03;;
22955;SDS011;40888;48.148;11.526;2022-12-18T06:40:09;37.30;;;26.63;;
22955;SDS011;40888;48.148;11.526;2022-12-18T06:42:35;33.83;;;24.87;;
22955;SDS011;40888;48.148;11.526;2022-12-18T06:45:02;37.37;;;26.17;;
22955;SDS011;40888;48.148;11.526;2022-12-18T06:47:28;38.60;;;26.63;;
22955;SDS011;40888;48.148;11.526;2022-12-18T06:49:54;36.73;;;25.93;;
22955;SDS011;40888;48.148;11.526;2022-12-18T06:52:20;37.87;;;27.63;;
22955;SDS011;40888;48.148;11.526;2022-12-18T06:54:46;38.10;;;26.83;;
22955;SDS011;40888;48.148;11.526;2022-12-18T06:57:12;35.63;;;25.63;;
22955;SDS011;40888;48.148;11.526;2022-12-18T06:59:38;35.97;;;25.80;;
22955;SDS011;40888;48.148;11.526;2022-12-18T07:02:05;35.63;;;24.73;;
22955;SDS011;40888;48.148;11.526;2022-12-18T07:04:31;35.07;;;24.90;;
22955;SDS011;40888;48.148;11.526;2022-12-18T07:06:57;36.33;;;25.20;;
22955;SDS011;40888;48.148;11.526;2022-12-18T07:09:24;33.27;;;24.20;;
22955;SDS011;40888;48.148;11.526;2022-12-18T07:11:50;36.17;;;25.67;;
22955;SDS011;40888;48.148;11.526;2022-12-18T07:14:16;39.20;;;27.23;;
22955;SDS011;40888;48.148;11.526;2022-12-18T07:16:42;37.57;;;26.87;;
22955;SDS011;40888;48.148;11.526;2022-12-18T07:19:08;41.30;;;27.80;;
22955;SDS011;40888;48.148;11.526;2022-12-18T07:21:34;45.87;;;30.27;;
22955;SDS011;40888;48.148;11.526;2022-12-18T07:24:00;40.13;;;27.73;;
22955;SDS011;40888;48.148;11.526;2022-12-18T07:26:27;40.83;;;28.90;;
22955;SDS011;40888;48.148;11.526;2022-12-18T07:28:56;39.50;;;28.17;;
22955;SDS011;40888;48.148;11.526;2022-12-18T07:31:22;42.00;;;29.27;;
22955;SDS011;40888;48.148;11.526;2022-12-18T07:33:49;40.53;;;29.53;;
22955;SDS011;40888;48.148;11.526;2022-12-18T07:36:16;41.20;;;29.10;;
22955;SDS011;40888;48.148;11.526;2022-12-18T07:38:42;38.57;;;27.40;;
22955;SDS011;40888;48.148;11.526;2022-12-18T07:41:09;37.00;;;25.27;;
22955;SDS011;40888;48.148;11.526;2022-12-18T07:43:36;40.17;;;28.37;;
22955;SDS011;40888;48.148;11.526;2022-12-18T07:46:03;39.97;;;28.97;;
22955;SDS011;40888;48.148;11.526;2022-12-18T07:48:29;35.67;;;26.63;;
22955;SDS011;40888;48.148;11.526;2022-12-18T07:50:59;39.57;;;27.83;;
22955;SDS011;40888;48.148;11.526;2022-12-18T07:53:25;37.73;;;27.43;;
22955;SDS011;40888;48.148;11.526;2022-12-18T07:55:58;36.17;;;25.70;;
22955;SDS011;40888;48.148;11.526;2022-12-18T07:58:24;35.00;;;24.60;;
22955;SDS011;40888;48.148;11.526;2022-12-18T08:00:50;33.83;;;23.70;;
22955;SDS011;40888;48.148;11.526;2022-12-18T08:03:17;34.37;;;24.37;;
22955;SDS011;40888;48.148;11.526;2022-12-18T08:05:43;35.63;;;24.97;;
22955;SDS011;40888;48.148;11.526;2022-12-18T08:08:10;36.67;;;25.00;;
22955;SDS011;40888;48.148;11.526;2022-12-18T08:10:37;36.40;;;26.27;;
22955;SDS011;40888;48.148;11.526;2022-12-18T08:13:03;33.87;;;24.73;;
22955;SDS011;40888;48.148;11.526;2022-12-18T08:15:29;32.90;;;23.87;;
22955;SDS011;40888;48.148;11.526;2022-12-18T08:17:58;34.20;;;24.13;;
22955;SDS011;40888;48.148;11.526;2022-12-18T08:20:24;34.43;;;25.43;;
22955;SDS011;40888;48.148;11.526;2022-12-18T08:22:51;37.83;;;25.47;;
22955;SDS011;40888;48.148;11.526;2022-12-18T08:25:17;39.13;;;26.43;;
22955;SDS011;40888;48.148;11.526;2022-12-18T08:27:43;31.93;;;23.37;;
22955;SDS011;40888;48.148;11.526;2022-12-18T08:30:09;33.83;;;24.80;;
22955;SDS011;40888;48.148;11.526;2022-12-18T08:32:36;33.33;;;24.23;;
22955;SDS011;40888;48.148;11.526;2022-12-18T08:35:02;34.20;;;24.67;;
22955;SDS011;40888;48.148;11.526;2022-12-18T08:37:28;35.33;;;24.80;;
22955;SDS011;40888;48.148;11.526;2022-12-18T08:39:54;33.23;;;24.97;;
22955;SDS011;40888;48.148;11.526;2022-12-18T08:42:20;34.37;;;25.27;;
22955;SDS011;40888;48.148;11.526;2022-12-18T08:45:05;32.53;;;23.43;;
22955;SDS011;40888;48.148;11.526;2022-12-18T08:47:31;34.47;;;24.03;;
22955;SDS011;40888;48.148;11.526;2022-12-18T08:49:57;31.83;;;22.70;;
22955;SDS011;40888;48.148;11.526;2022-12-18T08:52:23;33.60;;;24.40;;
22955;SDS011;40888;48.148;11.526;2022-12-18T08:54:50;32.53;;;23.60;;
22955;SDS011;40888;48.148;11.526;2022-12-18T08:57:16;33.97;;;23.80;;
22955;SDS011;40888;48.148;11.526;2022-12-18T08:59:42;33.20;;;23.97;;
22955;SDS011;40888;48.148;11.526;2022-12-18T09:02:09;34.30;;;24.20;;
22955;SDS011;40888;48.148;11.526;2022-12-18T09:04:36;32.80;;;23.03;;
22955;SDS011;40888;48.148;11.526;2022-12-18T09:07:02;34.97;;;24.60;;
22955;SDS011;40888;48.148;11.526;2022-12-18T09:09:28;33.03;;;24.63;;
22955;SDS011;40888;48.148;11.526;2022-12-18T09:11:54;30.87;;;23.67;;
22955;SDS011;40888;48.148;11.526;2022-12-18T09:14:20;32.87;;;23.00;;
22955;SDS011;40888;48.148;11.526;2022-12-18T09:16:47;29.77;;;22.33;;
22955;SDS011;40888;48.148;11.526;2022-12-18T09:19:13;32.33;;;23.33;;
22955;SDS011;40888;48.148;11.526;2022-12-18T09:21:39;30.80;;;23.67;;
22955;SDS011;40888;48.148;11.526;2022-12-18T09:24:05;29.33;;;21.80;;
22955;SDS011;40888;48.148;11.526;2022-12-18T09:26:31;30.97;;;22.20;;
22955;SDS011;40888;48.148;11.526;2022-12-18T09:28:58;31.03;;;22.77;;
22955;SDS011;40888;48.148;11.526;2022-12-18T09:31:24;31.00;;;22.33;;
22955;SDS011;40888;48.148;11.526;2022-12-18T09:33:50;31.03;;;23.17;;
22955;SDS011;40888;48.148;11.526;2022-12-18T09:36:17;30.30;;;21.93;;
22955;SDS011;40888;48.148;11.526;2022-12-18T09:38:44;29.87;;;22.93;;
22955;SDS011;40888;48.148;11.526;2022-12-18T09:41:30;29.83;;;20.77;;
22955;SDS011;40888;48.148;11.526;2022-12-18T09:44:00;29.00;;;21.20;;
22955;SDS011;40888;48.148;11.526;2022-12-18T09:46:29;29.00;;;21.77;;
22955;SDS011;40888;48.148;11.526;2022-12-18T09:48:57;29.83;;;21.63;;
22955;SDS011;40888;48.148;11.526;2022-12-18T09:51:30;28.83;;;21.07;;
22955;SDS011;40888;48.148;11.526;2022-12-18T09:53:59;29.90;;;21.70;;
22955;SDS011;40888;48.148;11.526;2022-12-18T09:56:28;31.63;;;22.63;;
22955;SDS011;40888;48.148;11.526;2022-12-18T09:58:57;30.30;;;22.13;;
22955;SDS011;40888;48.148;11.526;2022-12-18T10:01:24;32.00;;;23.10;;
22955;SDS011;40888;48.148;11.526;2022-12-18T10:03:50;28.47;;;20.97;;
22955;SDS011;40888;48.148;11.526;2022-12-18T10:06:28;28.57;;;21.33;;
22955;SDS011;40888;48.148;11.526;2022-12-18T10:08:58;29.07;;;21.03;;
22955;SDS011;40888;48.148;11.526;2022-12-18T10:19:39;29.83;;;22.07;;
22955;SDS011;40888;48.148;11.526;2022-12-18T10:22:16;31.70;;;22.93;;
22955;SDS011;40888;48.148;11.526;2022-12-18T10:24:50;30.50;;;21.70;;
22955;SDS011;40888;48.148;11.526;2022-12-18T10:27:23;29.43;;;21.80;;
22955;SDS011;40888;48.148;11.526;2022-12-18T10:29:50;26.90;;;21.33;;
22955;SDS011;40888;48.148;11.526;2022-12-18T10:32:20;29.80;;;21.93;;
22955;SDS011;40888;48.148;11.526;2022-12-18T10:34:48;29.83;;;22.73;;
22955;SDS011;40888;48.148;11.526;2022-12-18T10:37:16;28.93;;;22.60;;
22955;SDS011;40888;48.148;11.526;2022-12-18T10:39:43;32.57;;;22.90;;
22955;SDS011;40888;48.148;11.526;2022-12-18T10:42:18;33.33;;;23.10;;
22955;SDS011;40888;48.148;11.526;2022-12-18T10:44:45;29.63;;;22.83;;
22955;SDS011;40888;48.148;11.526;2022-12-18T10:47:15;30.67;;;22.60;;
22955;SDS011;40888;48.148;11.526;2022-12-18T10:49:50;32.93;;;23.17;;
22955;SDS011;40888;48.148;11.526;2022-12-18T10:52:24;29.20;;;21.23;;
22955;SDS011;40888;48.148;11.526;2022-12-18T10:55:01;28.73;;;21.50;;
22955;SDS011;40888;48.148;11.526;2022-12-18T10:59:57;27.87;;;21.03;;
22955;SDS011;40888;48.148;11.526;2022-12-18T11:02:28;29.17;;;21.23;;
22955;SDS011;40888;48.148;11.526;2022-12-18T11:04:59;30.30;;;21.80;;
22955;SDS011;40888;48.148;11.526;2022-12-18T11:07:25;29.47;;;22.50;;
22955;SDS011;40888;48.148;11.526;2022-12-18T11:10:00;31.63;;;22.63;;
22955;SDS011;40888;48.148;11.526;2022-12-18T11:12:27;28.73;;;21.20;;
22955;SDS011;40888;48.148;11.526;2022-12-18T11:14:54;29.60;;;22.23;;
22955;SDS011;40888;48.148;11.526;2022-12-18T11:17:28;29.73;;;22.70;;
22955;SDS011;40888;48.148;11.526;2022-12-18T11:20:04;29.90;;;21.27;;
22955;SDS011;40888;48.148;11.526;2022-12-18T11:22:33;28.83;;;22.47;;
22955;SDS011;40888;48.148;11.526;2022-12-18T11:25:00;30.30;;;22.40;;
22955;SDS011;40888;48.148;11.526;2022-12-18T11:27:27;32.57;;;22.90;;
22955;SDS011;40888;48.148;11.526;2022-12-18T11:30:06;29.20;;;21.73;;
22955;SDS011;40888;48.148;11.526;2022-12-18T11:32:34;31.97;;;24.03;;
22955;SDS011;40888;48.148;11.526;2022-12-18T11:35:08;32.00;;;22.63;;
22955;SDS011;40888;48.148;11.526;2022-12-18T11:37:37;28.90;;;21.93;;
22955;SDS011;40888;48.148;11.526;2022-12-18T11:40:47;31.53;;;22.10;;
22955;SDS011;40888;48.148;11.526;2022-12-18T11:42:59;27.53;;;21.30;;
22955;SDS011;40888;48.148;11.526;2022-12-18T11:45:28;31.23;;;23.47;;
22955;SDS011;40888;48.148;11.526;2022-12-18T11:50:30;30.63;;;23.33;;
22955;SDS011;40888;48.148;11.526;2022-12-18T11:52:58;31.30;;;21.60;;
22955;SDS011;40888;48.148;11.526;2022-12-18T11:55:33;30.23;;;22.00;;
22955;SDS011;40888;48.148;11.526;2022-12-18T12:00:27;29.37;;;22.40;;
22955;SDS011;40888;48.148;11.526;2022-12-18T12:05:29;26.37;;;20.43;;
22955;SDS011;40888;48.148;11.526;2022-12-18T12:10:41;28.27;;;21.43;;
22955;SDS011;40888;48.148;11.526;2022-12-18T12:18:17;28.30;;;21.83;;
22955;SDS011;40888;48.148;11.526;2022-12-18T12:23:56;29.63;;;21.80;;
22955;SDS011;40888;48.148;11.526;2022-12-18T12:28:56;27.20;;;20.70;;
22955;SDS011;40888;48.148;11.526;2022-12-18T12:34:26;28.47;;;22.27;;
22955;SDS011;40888;48.148;11.526;2022-12-18T12:39:23;30.77;;;21.67;;
22955;SDS011;40888;48.148;11.526;2022-12-18T12:41:53;26.70;;;21.50;;
22955;SDS011;40888;48.148;11.526;2022-12-18T12:44:39;27.13;;;20.20;;
22955;SDS011;40888;48.148;11.526;2022-12-18T12:47:13;27.83;;;21.23;;
22955;SDS011;40888;48.148;11.526;2022-12-18T12:49:40;27.17;;;20.73;;
22955;SDS011;40888;48.148;11.526;2022-12-18T12:52:14;28.23;;;21.80;;
22955;SDS011;40888;48.148;11.526;2022-12-18T12:54:41;28.93;;;21.53;;
22955;SDS011;40888;48.148;11.526;2022-12-18T12:59:37;25.97;;;20.97;;
22955;SDS011;40888;48.148;11.526;2022-12-18T13:04:58;28.57;;;21.87;;
22955;SDS011;40888;48.148;11.526;2022-12-18T13:13:27;27.93;;;21.93;;
22955;SDS011;40888;48.148;11.526;2022-12-18T13:15:33;25.80;;;19.87;;
22955;SDS011;40888;48.148;11.526;2022-12-18T13:18:42;26.53;;;20.40;;
22955;SDS011;40888;48.148;11.526;2022-12-18T13:20:50;26.83;;;19.97;;
22955;SDS011;40888;48.148;11.526;2022-12-18T13:25:50;27.10;;;21.37;;
22955;SDS011;40888;48.148;11.526;2022-12-18T13:28:17;26.87;;;20.43;;
22955;SDS011;40888;48.148;11.526;2022-12-18T13:35:51;26.67;;;20.93;;
22955;SDS011;40888;48.148;11.526;2022-12-18T13:38:37;28.00;;;21.27;;
22955;SDS011;40888;48.148;11.526;2022-12-18T13:41:20;28.27;;;20.60;;
22955;SDS011;40888;48.148;11.526;2022-12-18T13:43:53;25.93;;;20.73;;
22955;SDS011;40888;48.148;11.526;2022-12-18T13:48:53;25.13;;;20.07;;
22955;SDS011;40888;48.148;11.526;2022-12-18T13:51:21;26.53;;;19.93;;
22955;SDS011;40888;48.148;11.526;2022-12-18T13:53:48;27.10;;;20.33;;
22955;SDS011;40888;48.148;11.526;2022-12-18T13:56:20;27.03;;;20.60;;
22955;SDS011;40888;48.148;11.526;2022-12-18T13:59:03;26.57;;;21.23;;
22955;SDS011;40888;48.148;11.526;2022-12-18T14:01:29;27.77;;;21.27;;
22955;SDS011;40888;48.148;11.526;2022-12-18T14:07:04;28.77;;;21.20;;
22955;SDS011;40888;48.148;11.526;2022-12-18T14:09:34;25.97;;;20.07;;
22955;SDS011;40888;48.148;11.526;2022-12-18T14:12:00;27.00;;;21.07;;
22955;SDS011;40888;48.148;11.526;2022-12-18T14:14:46;29.50;;;21.97;;
22955;SDS011;40888;48.148;11.526;2022-12-18T14:17:13;28.70;;;21.23;;
22955;SDS011;40888;48.148;11.526;2022-12-18T14:19:49;29.60;;;21.87;;
22955;SDS011;40888;48.148;11.526;2022-12-18T14:22:20;31.77;;;21.27;;
22955;SDS011;40888;48.148;11.526;2022-12-18T14:24:47;30.63;;;22.20;;
22955;SDS011;40888;48.148;11.526;2022-12-18T14:27:21;30.83;;;21.87;;
22955;SDS011;40888;48.148;11.526;2022-12-18T14:29:47;30.70;;;22.30;;
22955;SDS011;40888;48.148;11.526;2022-12-18T14:32:14;28.70;;;21.00;;
22955;SDS011;40888;48.148;11.526;2022-12-18T14:34:45;28.00;;;20.93;;
22955;SDS011;40888;48.148;11.526;2022-12-18T14:37:12;29.60;;;22.27;;
22955;SDS011;40888;48.148;11.526;2022-12-18T14:39:39;28.80;;;21.77;;
22955;SDS011;40888;48.148;11.526;2022-12-18T14:42:05;29.53;;;22.47;;
22955;SDS011;40888;48.148;11.526;2022-12-18T14:44:31;30.63;;;21.60;;
22955;SDS011;40888;48.148;11.526;2022-12-18T14:46:57;30.70;;;22.83;;
22955;SDS011;40888;48.148;11.526;2022-12-18T14:49:30;29.77;;;21.70;;
22955;SDS011;40888;48.148;11.526;2022-12-18T14:52:04;28.93;;;21.50;;
22955;SDS011;40888;48.148;11.526;2022-12-18T14:54:31;29.40;;;21.57;;
22955;SDS011;40888;48.148;11.526;2022-12-18T14:59:43;28.33;;;21.33;;
22955;SDS011;40888;48.148;11.526;2022-12-18T15:02:18;29.80;;;21.20;;
22955;SDS011;40888;48.148;11.526;2022-12-18T15:04:46;31.40;;;22.23;;
22955;SDS011;40888;48.148;11.526;2022-12-18T15:07:22;31.10;;;22.77;;
22955;SDS011;40888;48.148;11.526;2022-12-18T15:18:04;33.47;;;23.67;;
22955;SDS011;40888;48.148;11.526;2022-12-18T15:23:16;33.77;;;23.77;;
22955;SDS011;40888;48.148;11.526;2022-12-18T15:25:43;31.30;;;22.57;;
22955;SDS011;40888;48.148;11.526;2022-12-18T15:33:37;30.27;;;22.33;;
22955;SDS011;40888;48.148;11.526;2022-12-18T15:36:05;32.47;;;23.00;;
22955;SDS011;40888;48.148;11.526;2022-12-18T15:38:31;33.07;;;23.83;;
22955;SDS011;40888;48.148;11.526;2022-12-18T15:40:57;31.67;;;23.30;;
22955;SDS011;40888;48.148;11.526;2022-12-18T15:43:24;34.53;;;23.53;;
22955;SDS011;40888;48.148;11.526;2022-12-18T15:46:00;34.13;;;23.67;;
22955;SDS011;40888;48.148;11.526;2022-12-18T15:48:27;33.27;;;23.73;;
22955;SDS011;40888;48.148;11.526;2022-12-18T15:50:53;29.20;;;22.53;;
22955;SDS011;40888;48.148;11.526;2022-12-18T15:53:22;33.77;;;23.23;;
22955;SDS011;40888;48.148;11.526;2022-12-18T15:55:48;33.13;;;24.60;;